This is the latest recevied weather packets stored in our database for station/object EB1BCG-1. If no packets are shown the sender has not sent any weather packets the latest 10 day(s).
| Time | Temp. | Humidity | Pressure | Rain* | Wind** | Luminosity | Snow |
|---|---|---|---|---|---|---|---|
| 1777977877 | 15° C | 49% | 1011.3 hPa | 0 mm | 0 m/s | - | - |
| 1777977275 | 14.44° C | 54% | 1011.2 hPa | 0 mm | 0 m/s | - | - |
| 1777976660 | 13.89° C | 54% | 1011.3 hPa | 0 mm | 0 m/s | - | - |
| 1777976053 | 11.11° C | 56% | 1011.4 hPa | 0 mm | 0 m/s | - | - |
| 1777975449 | 11.11° C | 57% | 1011.6 hPa | 0 mm | 0 m/s | - | - |
| 1777974838 | 12.78° C | 55% | 1011.3 hPa | 0 mm | 0 m/s | - | - |
| 1777974231 | 12.78° C | 57% | 1011.5 hPa | 0 mm | 0 m/s | - | - |
| 1777973623 | 12.78° C | 63% | 1011.4 hPa | 0 mm | 0 m/s | - | - |
| 1777972410 | 11.11° C | 66% | 1011.8 hPa | 0 mm | 0 m/s | - | - |
| 1777971800 | 10° C | 70% | 1011.8 hPa | 0 mm | 0 m/s | - | - |
| 1777970589 | 9.44° C | 81% | 1011.8 hPa | 0 mm | 0 m/s | - | - |
| 1777969979 | 9.44° C | 80% | 1011.9 hPa | 0 mm | 0 m/s | - | - |
| 1777969372 | 8.89° C | 84% | 1012 hPa | 0 mm | 0 m/s | - | - |
| 1777968770 | 8.89° C | 90% | 1012 hPa | 0 mm | 0 m/s | - | - |
| 1777968158 | 8.33° C | 91% | 1011.9 hPa | 0 mm | 0 m/s | - | - |
| 1777967551 | 8.33° C | 89% | 1011.9 hPa | 0 mm | 0 m/s | - | - |
| 1777966944 | 7.78° C | 92% | 1011.9 hPa | 0 mm | 0 m/s | - | - |
| 1777966337 | 7.78° C | 91% | 1012 hPa | 0 mm | 0 m/s | - | - |
| 1777965730 | 7.78° C | 98% | 1011.9 hPa | 0 mm | 0 m/s | - | - |
| 1777964516 | 7.22° C | 99% | 1012 hPa | 0 mm | 0 m/s | - | - |
| 1777963915 | 7.22° C | 99% | 1012 hPa | 0 mm | 0 m/s | - | - |
| 1777963301 | 6.67° C | 99% | 1012 hPa | 0 mm | 0 m/s | - | - |
| 1777962694 | 6.67° C | 99% | 1012 hPa | 0 mm | 0 m/s | - | - |
| 1777962089 | 6.67° C | 99% | 1012 hPa | 0 mm | 0 m/s | - | - |
| 1777961480 | 6.11° C | 99% | 1012 hPa | 0 mm | 0 m/s | - | - |
* Rain latest hour (hover to see other rain measurements)
** Current wind speed in m/s (hover to see current wind gust speed)